sensor_id;sensor_type;location;lat;lon;timestamp;temperature;humidity
31979;DHT22;18502;43.574;1.276;2022-08-25T00:01:18;25.10;66.40
31979;DHT22;18502;43.574;1.276;2022-08-25T00:03:45;25.10;66.80
31979;DHT22;18502;43.574;1.276;2022-08-25T00:06:11;25.00;66.80
31979;DHT22;18502;43.574;1.276;2022-08-25T00:08:38;25.00;67.10
31979;DHT22;18502;43.574;1.276;2022-08-25T00:11:14;25.00;67.80
31979;DHT22;18502;43.574;1.276;2022-08-25T00:13:44;25.00;68.20
31979;DHT22;18502;43.574;1.276;2022-08-25T00:16:11;25.00;68.70
31979;DHT22;18502;43.574;1.276;2022-08-25T00:18:39;24.90;69.20
31979;DHT22;18502;43.574;1.276;2022-08-25T00:21:06;24.90;70.60
31979;DHT22;18502;43.574;1.276;2022-08-25T00:23:32;24.90;70.80
31979;DHT22;18502;43.574;1.276;2022-08-25T00:25:58;24.80;71.20
31979;DHT22;18502;43.574;1.276;2022-08-25T00:28:24;24.70;70.00
31979;DHT22;18502;43.574;1.276;2022-08-25T00:30:50;24.70;69.60
31979;DHT22;18502;43.574;1.276;2022-08-25T00:33:17;24.70;72.30
31979;DHT22;18502;43.574;1.276;2022-08-25T00:35:43;24.60;70.20
31979;DHT22;18502;43.574;1.276;2022-08-25T00:38:10;24.70;72.60
31979;DHT22;18502;43.574;1.276;2022-08-25T00:40:38;24.70;72.00
31979;DHT22;18502;43.574;1.276;2022-08-25T00:43:05;24.50;71.90
31979;DHT22;18502;43.574;1.276;2022-08-25T00:45:32;24.50;72.90
31979;DHT22;18502;43.574;1.276;2022-08-25T00:47:59;24.40;74.40
31979;DHT22;18502;43.574;1.276;2022-08-25T00:50:27;24.40;75.40
31979;DHT22;18502;43.574;1.276;2022-08-25T00:52:55;24.30;73.80
31979;DHT22;18502;43.574;1.276;2022-08-25T00:55:35;24.40;73.80
31979;DHT22;18502;43.574;1.276;2022-08-25T00:58:19;24.20;74.60
31979;DHT22;18502;43.574;1.276;2022-08-25T01:00:48;24.00;75.80
31979;DHT22;18502;43.574;1.276;2022-08-25T01:03:15;23.90;77.20
31979;DHT22;18502;43.574;1.276;2022-08-25T01:05:42;23.80;77.80
31979;DHT22;18502;43.574;1.276;2022-08-25T01:08:08;23.80;78.30
31979;DHT22;18502;43.574;1.276;2022-08-25T01:10:36;23.90;77.50
31979;DHT22;18502;43.574;1.276;2022-08-25T01:13:15;24.00;77.10
31979;DHT22;18502;43.574;1.276;2022-08-25T01:15:48;24.00;78.10
31979;DHT22;18502;43.574;1.276;2022-08-25T01:18:17;24.00;78.00
31979;DHT22;18502;43.574;1.276;2022-08-25T01:23:11;24.20;77.70
31979;DHT22;18502;43.574;1.276;2022-08-25T01:25:55;24.20;77.30
31979;DHT22;18502;43.574;1.276;2022-08-25T01:28:23;24.30;77.70
31979;DHT22;18502;43.574;1.276;2022-08-25T01:30:49;24.20;78.30
31979;DHT22;18502;43.574;1.276;2022-08-25T01:33:15;24.20;79.50
31979;DHT22;18502;43.574;1.276;2022-08-25T01:35:44;24.20;79.60
31979;DHT22;18502;43.574;1.276;2022-08-25T01:38:09;24.20;80.10
31979;DHT22;18502;43.574;1.276;2022-08-25T01:40:37;24.10;81.10
31979;DHT22;18502;43.574;1.276;2022-08-25T01:45:42;24.10;82.50
31979;DHT22;18502;43.574;1.276;2022-08-25T01:48:09;24.10;83.50
31979;DHT22;18502;43.574;1.276;2022-08-25T01:50:35;24.10;86.40
31979;DHT22;18502;43.574;1.276;2022-08-25T01:53:07;24.10;90.30
31979;DHT22;18502;43.574;1.276;2022-08-25T01:55:34;24.10;91.80
31979;DHT22;18502;43.574;1.276;2022-08-25T01:58:24;24.10;93.90
31979;DHT22;18502;43.574;1.276;2022-08-25T02:00:52;24.00;95.80
31979;DHT22;18502;43.574;1.276;2022-08-25T02:03:22;24.00;97.60
31979;DHT22;18502;43.574;1.276;2022-08-25T02:05:49;24.00;99.40
31979;DHT22;18502;43.574;1.276;2022-08-25T02:08:16;24.00;99.90
31979;DHT22;18502;43.574;1.276;2022-08-25T02:10:42;24.00;99.90
31979;DHT22;18502;43.574;1.276;2022-08-25T02:13:08;24.00;99.90
31979;DHT22;18502;43.574;1.276;2022-08-25T02:15:38;24.00;99.90
31979;DHT22;18502;43.574;1.276;2022-08-25T02:18:04;24.10;99.90
31979;DHT22;18502;43.574;1.276;2022-08-25T02:20:30;24.10;99.90
31979;DHT22;18502;43.574;1.276;2022-08-25T02:22:56;24.00;99.90
31979;DHT22;18502;43.574;1.276;2022-08-25T02:25:21;24.00;99.90
31979;DHT22;18502;43.574;1.276;2022-08-25T02:27:47;24.10;99.90
31979;DHT22;18502;43.574;1.276;2022-08-25T02:30:14;24.10;99.90
31979;DHT22;18502;43.574;1.276;2022-08-25T02:32:40;24.10;99.90
31979;DHT22;18502;43.574;1.276;2022-08-25T02:35:07;24.10;99.90
31979;DHT22;18502;43.574;1.276;2022-08-25T02:37:34;24.00;99.90
31979;DHT22;18502;43.574;1.276;2022-08-25T02:40:00;24.00;99.90
31979;DHT22;18502;43.574;1.276;2022-08-25T02:42:26;24.00;99.90
31979;DHT22;18502;43.574;1.276;2022-08-25T02:44:52;24.00;99.90
31979;DHT22;18502;43.574;1.276;2022-08-25T02:47:19;24.00;99.90
31979;DHT22;18502;43.574;1.276;2022-08-25T02:49:44;24.00;99.90
31979;DHT22;18502;43.574;1.276;2022-08-25T02:52:10;23.90;99.90
31979;DHT22;18502;43.574;1.276;2022-08-25T02:54:36;24.00;99.90
31979;DHT22;18502;43.574;1.276;2022-08-25T02:57:02;23.90;99.90
31979;DHT22;18502;43.574;1.276;2022-08-25T02:59:29;23.80;99.90
31979;DHT22;18502;43.574;1.276;2022-08-25T03:01:55;23.80;99.90
31979;DHT22;18502;43.574;1.276;2022-08-25T03:04:20;23.80;99.90
31979;DHT22;18502;43.574;1.276;2022-08-25T03:06:46;23.70;99.90
31979;DHT22;18502;43.574;1.276;2022-08-25T03:09:12;23.60;99.90
31979;DHT22;18502;43.574;1.276;2022-08-25T03:11:38;23.60;99.90
31979;DHT22;18502;43.574;1.276;2022-08-25T03:14:05;23.60;99.90
31979;DHT22;18502;43.574;1.276;2022-08-25T03:16:31;23.50;99.90
31979;DHT22;18502;43.574;1.276;2022-08-25T03:18:57;23.50;99.90
31979;DHT22;18502;43.574;1.276;2022-08-25T03:21:24;23.40;99.90
31979;DHT22;18502;43.574;1.276;2022-08-25T03:23:49;23.40;99.90
31979;DHT22;18502;43.574;1.276;2022-08-25T03:26:15;23.40;99.90
31979;DHT22;18502;43.574;1.276;2022-08-25T03:29:00;23.30;99.90
31979;DHT22;18502;43.574;1.276;2022-08-25T03:31:30;23.30;99.90
31979;DHT22;18502;43.574;1.276;2022-08-25T03:33:57;23.40;99.90
31979;DHT22;18502;43.574;1.276;2022-08-25T03:36:24;23.30;99.90
31979;DHT22;18502;43.574;1.276;2022-08-25T03:38:50;23.30;99.90
31979;DHT22;18502;43.574;1.276;2022-08-25T03:41:25;23.20;99.90
31979;DHT22;18502;43.574;1.276;2022-08-25T03:43:53;23.20;99.90
31979;DHT22;18502;43.574;1.276;2022-08-25T03:46:26;23.20;99.90
31979;DHT22;18502;43.574;1.276;2022-08-25T03:48:52;23.20;99.90
31979;DHT22;18502;43.574;1.276;2022-08-25T03:51:29;23.20;99.90
31979;DHT22;18502;43.574;1.276;2022-08-25T03:53:56;23.20;99.90
31979;DHT22;18502;43.574;1.276;2022-08-25T03:56:23;23.10;99.90
31979;DHT22;18502;43.574;1.276;2022-08-25T03:58:49;23.00;99.90
31979;DHT22;18502;43.574;1.276;2022-08-25T04:01:15;23.00;99.90
31979;DHT22;18502;43.574;1.276;2022-08-25T04:03:41;23.00;99.90
31979;DHT22;18502;43.574;1.276;2022-08-25T04:06:07;22.90;99.90
31979;DHT22;18502;43.574;1.276;2022-08-25T04:08:33;22.80;99.90
31979;DHT22;18502;43.574;1.276;2022-08-25T04:11:11;22.70;99.90
31979;DHT22;18502;43.574;1.276;2022-08-25T04:13:37;22.60;99.90
31979;DHT22;18502;43.574;1.276;2022-08-25T04:16:12;22.60;99.90
31979;DHT22;18502;43.574;1.276;2022-08-25T04:18:40;22.60;99.90
31979;DHT22;18502;43.574;1.276;2022-08-25T04:21:07;22.60;99.90
31979;DHT22;18502;43.574;1.276;2022-08-25T04:23:35;22.60;99.90
31979;DHT22;18502;43.574;1.276;2022-08-25T04:26:06;22.50;99.90
31979;DHT22;18502;43.574;1.276;2022-08-25T04:28:32;22.40;99.90
31979;DHT22;18502;43.574;1.276;2022-08-25T04:30:58;22.40;99.90
31979;DHT22;18502;43.574;1.276;2022-08-25T04:33:24;22.30;99.90
31979;DHT22;18502;43.574;1.276;2022-08-25T04:35:49;22.30;99.90
31979;DHT22;18502;43.574;1.276;2022-08-25T04:38:15;22.30;99.90
31979;DHT22;18502;43.574;1.276;2022-08-25T04:40:41;22.30;99.90
31979;DHT22;18502;43.574;1.276;2022-08-25T04:43:07;22.30;99.90
31979;DHT22;18502;43.574;1.276;2022-08-25T04:45:39;22.30;99.90
31979;DHT22;18502;43.574;1.276;2022-08-25T04:48:05;22.30;99.90
31979;DHT22;18502;43.574;1.276;2022-08-25T04:50:31;22.30;99.90
31979;DHT22;18502;43.574;1.276;2022-08-25T04:52:56;22.30;99.90
31979;DHT22;18502;43.574;1.276;2022-08-25T04:55:22;22.30;99.90
31979;DHT22;18502;43.574;1.276;2022-08-25T04:57:48;22.30;99.90
31979;DHT22;18502;43.574;1.276;2022-08-25T05:00:15;22.20;99.90
31979;DHT22;18502;43.574;1.276;2022-08-25T05:02:40;22.30;99.90
31979;DHT22;18502;43.574;1.276;2022-08-25T05:05:06;22.30;99.90
31979;DHT22;18502;43.574;1.276;2022-08-25T05:07:32;22.20;99.90
31979;DHT22;18502;43.574;1.276;2022-08-25T05:09:58;22.20;99.90
31979;DHT22;18502;43.574;1.276;2022-08-25T05:12:23;22.20;99.90
31979;DHT22;18502;43.574;1.276;2022-08-25T05:14:51;22.20;99.90
31979;DHT22;18502;43.574;1.276;2022-08-25T05:17:17;22.10;99.90
31979;DHT22;18502;43.574;1.276;2022-08-25T05:19:43;22.10;99.90
31979;DHT22;18502;43.574;1.276;2022-08-25T05:22:09;22.10;99.90
31979;DHT22;18502;43.574;1.276;2022-08-25T05:24:35;22.10;99.90
31979;DHT22;18502;43.574;1.276;2022-08-25T05:27:01;21.90;99.90
31979;DHT22;18502;43.574;1.276;2022-08-25T05:29:28;21.70;99.90
31979;DHT22;18502;43.574;1.276;2022-08-25T05:31:54;21.10;99.90
31979;DHT22;18502;43.574;1.276;2022-08-25T05:34:20;20.90;99.90
31979;DHT22;18502;43.574;1.276;2022-08-25T05:36:47;20.70;99.90
31979;DHT22;18502;43.574;1.276;2022-08-25T05:39:12;20.70;99.90
31979;DHT22;18502;43.574;1.276;2022-08-25T05:41:39;21.00;99.90
31979;DHT22;18502;43.574;1.276;2022-08-25T05:44:05;21.20;99.90
31979;DHT22;18502;43.574;1.276;2022-08-25T05:46:31;21.30;99.90
31979;DHT22;18502;43.574;1.276;2022-08-25T05:48:56;22.30;99.90
31979;DHT22;18502;43.574;1.276;2022-08-25T05:51:22;23.10;99.90
31979;DHT22;18502;43.574;1.276;2022-08-25T05:53:49;23.30;99.90
31979;DHT22;18502;43.574;1.276;2022-08-25T05:56:16;23.60;99.90
31979;DHT22;18502;43.574;1.276;2022-08-25T05:58:42;23.60;99.90
31979;DHT22;18502;43.574;1.276;2022-08-25T06:01:09;23.70;99.90
31979;DHT22;18502;43.574;1.276;2022-08-25T06:04:00;24.00;99.90
31979;DHT22;18502;43.574;1.276;2022-08-25T06:06:26;24.30;99.90
31979;DHT22;18502;43.574;1.276;2022-08-25T06:08:52;24.10;99.90
31979;DHT22;18502;43.574;1.276;2022-08-25T06:11:18;23.90;99.90
31979;DHT22;18502;43.574;1.276;2022-08-25T06:13:44;24.00;99.90
31979;DHT22;18502;43.574;1.276;2022-08-25T06:16:10;24.10;99.90
31979;DHT22;18502;43.574;1.276;2022-08-25T06:18:36;24.50;99.90
31979;DHT22;18502;43.574;1.276;2022-08-25T06:21:12;24.80;99.90
31979;DHT22;18502;43.574;1.276;2022-08-25T06:23:39;24.80;99.90
31979;DHT22;18502;43.574;1.276;2022-08-25T06:26:05;24.70;99.90
31979;DHT22;18502;43.574;1.276;2022-08-25T06:28:31;24.90;99.90
31979;DHT22;18502;43.574;1.276;2022-08-25T06:30:58;24.90;99.90
31979;DHT22;18502;43.574;1.276;2022-08-25T06:33:24;24.90;99.90
31979;DHT22;18502;43.574;1.276;2022-08-25T06:35:53;25.00;99.90
31979;DHT22;18502;43.574;1.276;2022-08-25T06:38:20;25.20;99.90
31979;DHT22;18502;43.574;1.276;2022-08-25T06:40:47;25.30;99.90
31979;DHT22;18502;43.574;1.276;2022-08-25T06:43:13;25.40;99.90
31979;DHT22;18502;43.574;1.276;2022-08-25T06:45:40;25.40;99.90
31979;DHT22;18502;43.574;1.276;2022-08-25T06:48:07;25.50;99.90
31979;DHT22;18502;43.574;1.276;2022-08-25T06:50:33;25.30;99.90
31979;DHT22;18502;43.574;1.276;2022-08-25T06:52:59;25.10;99.90
31979;DHT22;18502;43.574;1.276;2022-08-25T06:55:24;25.20;99.90
31979;DHT22;18502;43.574;1.276;2022-08-25T06:57:53;25.00;99.90
31979;DHT22;18502;43.574;1.276;2022-08-25T07:00:19;24.70;99.90
31979;DHT22;18502;43.574;1.276;2022-08-25T07:02:44;24.70;99.90
31979;DHT22;18502;43.574;1.276;2022-08-25T07:05:12;24.60;99.90
31979;DHT22;18502;43.574;1.276;2022-08-25T07:07:37;24.60;99.90
31979;DHT22;18502;43.574;1.276;2022-08-25T07:10:03;24.40;99.90
31979;DHT22;18502;43.574;1.276;2022-08-25T07:12:29;24.30;99.90
31979;DHT22;18502;43.574;1.276;2022-08-25T07:14:55;24.20;99.90
31979;DHT22;18502;43.574;1.276;2022-08-25T07:17:21;24.20;99.90
31979;DHT22;18502;43.574;1.276;2022-08-25T07:19:48;23.90;99.90
31979;DHT22;18502;43.574;1.276;2022-08-25T07:22:14;23.80;99.90
31979;DHT22;18502;43.574;1.276;2022-08-25T07:24:40;23.80;99.90
31979;DHT22;18502;43.574;1.276;2022-08-25T07:27:06;23.70;99.90
31979;DHT22;18502;43.574;1.276;2022-08-25T07:29:32;23.70;99.90
31979;DHT22;18502;43.574;1.276;2022-08-25T07:32:01;23.50;99.90
31979;DHT22;18502;43.574;1.276;2022-08-25T07:34:27;23.60;99.90
31979;DHT22;18502;43.574;1.276;2022-08-25T07:37:11;23.50;99.90
31979;DHT22;18502;43.574;1.276;2022-08-25T07:39:37;23.50;99.90
31979;DHT22;18502;43.574;1.276;2022-08-25T07:42:03;23.40;99.90
31979;DHT22;18502;43.574;1.276;2022-08-25T07:44:29;23.40;99.90
31979;DHT22;18502;43.574;1.276;2022-08-25T07:46:55;23.20;99.90
31979;DHT22;18502;43.574;1.276;2022-08-25T07:49:23;23.10;99.90
31979;DHT22;18502;43.574;1.276;2022-08-25T07:51:50;22.90;99.90
31979;DHT22;18502;43.574;1.276;2022-08-25T07:54:16;23.20;99.90
31979;DHT22;18502;43.574;1.276;2022-08-25T07:56:42;23.40;99.90
31979;DHT22;18502;43.574;1.276;2022-08-25T07:59:08;23.40;99.90
31979;DHT22;18502;43.574;1.276;2022-08-25T08:01:35;23.40;99.90
31979;DHT22;18502;43.574;1.276;2022-08-25T08:04:01;23.50;99.90
31979;DHT22;18502;43.574;1.276;2022-08-25T08:06:26;23.50;99.90
31979;DHT22;18502;43.574;1.276;2022-08-25T08:08:53;23.50;99.90
31979;DHT22;18502;43.574;1.276;2022-08-25T08:11:27;23.60;99.90
31979;DHT22;18502;43.574;1.276;2022-08-25T08:13:55;23.70;99.90
31979;DHT22;18502;43.574;1.276;2022-08-25T08:16:24;23.80;99.90
31979;DHT22;18502;43.574;1.276;2022-08-25T08:18:50;23.90;99.90
31979;DHT22;18502;43.574;1.276;2022-08-25T08:21:18;24.00;99.90
31979;DHT22;18502;43.574;1.276;2022-08-25T08:23:44;24.10;99.90
31979;DHT22;18502;43.574;1.276;2022-08-25T08:26:10;24.20;99.90
31979;DHT22;18502;43.574;1.276;2022-08-25T08:28:36;24.40;99.90
31979;DHT22;18502;43.574;1.276;2022-08-25T08:31:02;24.50;99.90
31979;DHT22;18502;43.574;1.276;2022-08-25T08:33:28;24.40;99.90
31979;DHT22;18502;43.574;1.276;2022-08-25T08:35:58;24.50;99.90
31979;DHT22;18502;43.574;1.276;2022-08-25T08:38:25;24.30;99.90
31979;DHT22;18502;43.574;1.276;2022-08-25T08:47:04;24.00;99.90
31979;DHT22;18502;43.574;1.276;2022-08-25T08:50:02;24.00;99.90
31979;DHT22;18502;43.574;1.276;2022-08-25T08:55:03;24.20;99.90
31979;DHT22;18502;43.574;1.276;2022-08-25T08:57:34;24.30;99.90
31979;DHT22;18502;43.574;1.276;2022-08-25T09:00:06;24.30;99.90
31979;DHT22;18502;43.574;1.276;2022-08-25T09:03:05;24.40;99.90
31979;DHT22;18502;43.574;1.276;2022-08-25T09:05:40;24.40;99.90
31979;DHT22;18502;43.574;1.276;2022-08-25T09:08:10;24.40;99.90
31979;DHT22;18502;43.574;1.276;2022-08-25T09:22:26;24.60;99.90
31979;DHT22;18502;43.574;1.276;2022-08-25T09:30:19;25.10;99.90
31979;DHT22;18502;43.574;1.276;2022-08-25T09:32:47;25.30;99.90
31979;DHT22;18502;43.574;1.276;2022-08-25T09:35:25;25.40;99.90
31979;DHT22;18502;43.574;1.276;2022-08-25T09:40:30;25.70;99.90
31979;DHT22;18502;43.574;1.276;2022-08-25T09:42:57;25.90;99.90
31979;DHT22;18502;43.574;1.276;2022-08-25T09:51:33;26.30;99.90
31979;DHT22;18502;43.574;1.276;2022-08-25T09:54:00;26.40;99.90
31979;DHT22;18502;43.574;1.276;2022-08-25T09:56:29;26.10;99.90
31979;DHT22;18502;43.574;1.276;2022-08-25T09:59:23;25.30;99.90
31979;DHT22;18502;43.574;1.276;2022-08-25T10:01:51;25.50;99.90
31979;DHT22;18502;43.574;1.276;2022-08-25T10:04:31;25.50;99.90
31979;DHT22;18502;43.574;1.276;2022-08-25T10:06:59;25.60;99.90
31979;DHT22;18502;43.574;1.276;2022-08-25T10:09:32;24.90;99.90
31979;DHT22;18502;43.574;1.276;2022-08-25T10:12:00;25.40;99.90
31979;DHT22;18502;43.574;1.276;2022-08-25T10:17:23;26.40;99.90
31979;DHT22;18502;43.574;1.276;2022-08-25T10:22:35;27.20;99.90
31979;DHT22;18502;43.574;1.276;2022-08-25T10:25:02;27.20;99.90
31979;DHT22;18502;43.574;1.276;2022-08-25T10:30:16;27.10;99.90
31979;DHT22;18502;43.574;1.276;2022-08-25T10:38:38;28.90;99.90
31979;DHT22;18502;43.574;1.276;2022-08-25T10:53:09;30.00;99.90
31979;DHT22;18502;43.574;1.276;2022-08-25T11:00:47;30.40;99.90
31979;DHT22;18502;43.574;1.276;2022-08-25T11:06:06;29.40;99.90
31979;DHT22;18502;43.574;1.276;2022-08-25T11:08:56;29.50;99.90
31979;DHT22;18502;43.574;1.276;2022-08-25T11:11:57;29.90;99.90
31979;DHT22;18502;43.574;1.276;2022-08-25T11:14:32;28.70;99.90
31979;DHT22;18502;43.574;1.276;2022-08-25T11:17:05;28.60;99.90
31979;DHT22;18502;43.574;1.276;2022-08-25T11:19:40;30.00;99.90
31979;DHT22;18502;43.574;1.276;2022-08-25T11:22:22;30.40;99.90
31979;DHT22;18502;43.574;1.276;2022-08-25T11:28:28;29.60;99.90
31979;DHT22;18502;43.574;1.276;2022-08-25T11:30:58;31.90;99.90
31979;DHT22;18502;43.574;1.276;2022-08-25T11:33:25;31.50;99.90
31979;DHT22;18502;43.574;1.276;2022-08-25T11:35:56;29.50;99.90
31979;DHT22;18502;43.574;1.276;2022-08-25T11:50:08;31.10;99.90
31979;DHT22;18502;43.574;1.276;2022-08-25T11:52:54;30.80;99.90
31979;DHT22;18502;43.574;1.276;2022-08-25T11:57:48;31.20;99.90
31979;DHT22;18502;43.574;1.276;2022-08-25T12:00:40;31.10;99.90
31979;DHT22;18502;43.574;1.276;2022-08-25T12:06:21;31.20;99.90
31979;DHT22;18502;43.574;1.276;2022-08-25T12:08:53;30.80;99.90
31979;DHT22;18502;43.574;1.276;2022-08-25T12:27:36;37.60;99.90
31979;DHT22;18502;43.574;1.276;2022-08-25T12:35:59;35.70;99.90
31979;DHT22;18502;43.574;1.276;2022-08-25T12:38:42;36.40;99.90
31979;DHT22;18502;43.574;1.276;2022-08-25T12:41:12;35.50;99.90
31979;DHT22;18502;43.574;1.276;2022-08-25T12:43:41;36.70;99.90
31979;DHT22;18502;43.574;1.276;2022-08-25T12:57:36;33.40;99.90
31979;DHT22;18502;43.574;1.276;2022-08-25T13:00:24;32.40;99.90
31979;DHT22;18502;43.574;1.276;2022-08-25T13:16:06;39.00;89.40
31979;DHT22;18502;43.574;1.276;2022-08-25T13:18:36;41.30;81.00
31979;DHT22;18502;43.574;1.276;2022-08-25T13:21:18;39.30;84.40
31979;DHT22;18502;43.574;1.276;2022-08-25T13:23:50;36.30;84.00
31979;DHT22;18502;43.574;1.276;2022-08-25T13:26:27;36.30;88.60
31979;DHT22;18502;43.574;1.276;2022-08-25T13:28:59;33.70;90.10
31979;DHT22;18502;43.574;1.276;2022-08-25T13:31:27;34.40;91.90
31979;DHT22;18502;43.574;1.276;2022-08-25T13:34:04;37.80;81.20
31979;DHT22;18502;43.574;1.276;2022-08-25T13:36:35;40.00;74.70
31979;DHT22;18502;43.574;1.276;2022-08-25T13:39:25;36.30;79.30
31979;DHT22;18502;43.574;1.276;2022-08-25T13:41:54;40.50;73.20
31979;DHT22;18502;43.574;1.276;2022-08-25T13:44:23;39.40;71.00
31979;DHT22;18502;43.574;1.276;2022-08-25T13:49:35;36.40;70.90
31979;DHT22;18502;43.574;1.276;2022-08-25T13:52:02;36.10;75.00
31979;DHT22;18502;43.574;1.276;2022-08-25T13:54:39;38.70;70.70
31979;DHT22;18502;43.574;1.276;2022-08-25T13:57:16;38.00;69.10
31979;DHT22;18502;43.574;1.276;2022-08-25T13:59:43;33.80;79.20
31979;DHT22;18502;43.574;1.276;2022-08-25T14:02:13;40.10;70.30
31979;DHT22;18502;43.574;1.276;2022-08-25T14:04:58;39.80;65.40
31979;DHT22;18502;43.574;1.276;2022-08-25T14:07:27;42.40;60.30
31979;DHT22;18502;43.574;1.276;2022-08-25T14:17:33;41.00;57.80
31979;DHT22;18502;43.574;1.276;2022-08-25T14:19:59;40.20;55.80
31979;DHT22;18502;43.574;1.276;2022-08-25T14:22:24;39.70;56.90
31979;DHT22;18502;43.574;1.276;2022-08-25T14:24:51;37.10;60.50
31979;DHT22;18502;43.574;1.276;2022-08-25T14:27:17;34.30;66.00
31979;DHT22;18502;43.574;1.276;2022-08-25T14:29:43;33.50;70.00
31979;DHT22;18502;43.574;1.276;2022-08-25T14:32:09;33.40;71.90
31979;DHT22;18502;43.574;1.276;2022-08-25T14:34:36;35.60;70.30
31979;DHT22;18502;43.574;1.276;2022-08-25T14:37:13;38.70;60.90
31979;DHT22;18502;43.574;1.276;2022-08-25T14:39:39;36.30;63.10
31979;DHT22;18502;43.574;1.276;2022-08-25T14:42:05;36.30;63.10
31979;DHT22;18502;43.574;1.276;2022-08-25T14:44:31;35.10;66.50
31979;DHT22;18502;43.574;1.276;2022-08-25T14:46:57;38.80;59.90
31979;DHT22;18502;43.574;1.276;2022-08-25T14:49:28;38.60;61.30
31979;DHT22;18502;43.574;1.276;2022-08-25T14:52:05;41.00;55.30
31979;DHT22;18502;43.574;1.276;2022-08-25T14:54:32;38.00;57.30
31979;DHT22;18502;43.574;1.276;2022-08-25T14:56:58;35.00;63.00
31979;DHT22;18502;43.574;1.276;2022-08-25T14:59:23;33.90;66.70
31979;DHT22;18502;43.574;1.276;2022-08-25T15:01:50;33.30;68.30
31979;DHT22;18502;43.574;1.276;2022-08-25T15:04:18;33.50;69.80
31979;DHT22;18502;43.574;1.276;2022-08-25T15:06:45;33.00;70.30
31979;DHT22;18502;43.574;1.276;2022-08-25T15:09:13;32.40;71.60
31979;DHT22;18502;43.574;1.276;2022-08-25T15:11:46;32.60;71.60
31979;DHT22;18502;43.574;1.276;2022-08-25T15:14:15;32.90;71.10
31979;DHT22;18502;43.574;1.276;2022-08-25T15:16:45;33.30;70.30
31979;DHT22;18502;43.574;1.276;2022-08-25T15:19:14;32.90;71.50
31979;DHT22;18502;43.574;1.276;2022-08-25T15:21:42;34.20;69.80
31979;DHT22;18502;43.574;1.276;2022-08-25T15:24:09;33.60;68.90
31979;DHT22;18502;43.574;1.276;2022-08-25T15:26:40;33.10;70.50
31979;DHT22;18502;43.574;1.276;2022-08-25T15:29:07;34.80;68.20
31979;DHT22;18502;43.574;1.276;2022-08-25T15:31:33;39.10;60.70
31979;DHT22;18502;43.574;1.276;2022-08-25T15:33:59;40.00;57.00
31979;DHT22;18502;43.574;1.276;2022-08-25T15:36:25;40.50;55.00
31979;DHT22;18502;43.574;1.276;2022-08-25T15:38:51;37.00;57.10
31979;DHT22;18502;43.574;1.276;2022-08-25T15:41:18;38.60;56.50
31979;DHT22;18502;43.574;1.276;2022-08-25T15:43:45;40.20;54.20
31979;DHT22;18502;43.574;1.276;2022-08-25T15:46:13;39.10;54.30
31979;DHT22;18502;43.574;1.276;2022-08-25T15:48:40;39.10;54.40
31979;DHT22;18502;43.574;1.276;2022-08-25T15:51:06;39.20;53.50
31979;DHT22;18502;43.574;1.276;2022-08-25T15:53:33;39.10;52.40
31979;DHT22;18502;43.574;1.276;2022-08-25T15:55:59;38.10;54.20
31979;DHT22;18502;43.574;1.276;2022-08-25T15:58:26;37.70;53.90
31979;DHT22;18502;43.574;1.276;2022-08-25T16:00:53;39.30;53.70
31979;DHT22;18502;43.574;1.276;2022-08-25T16:03:18;38.90;51.10
31979;DHT22;18502;43.574;1.276;2022-08-25T16:05:44;38.40;52.30
31979;DHT22;18502;43.574;1.276;2022-08-25T16:08:10;36.60;54.60
31979;DHT22;18502;43.574;1.276;2022-08-25T16:10:38;35.90;55.50
31979;DHT22;18502;43.574;1.276;2022-08-25T16:13:04;33.90;59.50
31979;DHT22;18502;43.574;1.276;2022-08-25T16:15:31;36.70;55.40
31979;DHT22;18502;43.574;1.276;2022-08-25T16:17:58;38.70;51.50
31979;DHT22;18502;43.574;1.276;2022-08-25T16:20:28;38.30;51.00
31979;DHT22;18502;43.574;1.276;2022-08-25T16:22:54;34.30;55.50
31979;DHT22;18502;43.574;1.276;2022-08-25T16:25:20;33.80;59.10
31979;DHT22;18502;43.574;1.276;2022-08-25T16:27:46;35.40;57.30
31979;DHT22;18502;43.574;1.276;2022-08-25T16:30:12;33.70;59.10
31979;DHT22;18502;43.574;1.276;2022-08-25T16:32:38;35.60;55.40
31979;DHT22;18502;43.574;1.276;2022-08-25T16:35:05;35.50;55.50
31979;DHT22;18502;43.574;1.276;2022-08-25T16:37:34;35.30;56.10
31979;DHT22;18502;43.574;1.276;2022-08-25T16:40:01;36.20;55.50
31979;DHT22;18502;43.574;1.276;2022-08-25T16:42:27;34.80;57.80
31979;DHT22;18502;43.574;1.276;2022-08-25T16:44:53;35.10;57.10
31979;DHT22;18502;43.574;1.276;2022-08-25T16:47:20;35.30;57.00
31979;DHT22;18502;43.574;1.276;2022-08-25T16:49:46;33.50;59.30
31979;DHT22;18502;43.574;1.276;2022-08-25T16:52:12;35.50;58.20
31979;DHT22;18502;43.574;1.276;2022-08-25T16:54:58;36.60;54.90
31979;DHT22;18502;43.574;1.276;2022-08-25T16:57:42;35.20;56.40
31979;DHT22;18502;43.574;1.276;2022-08-25T17:00:13;33.90;59.80
31979;DHT22;18502;43.574;1.276;2022-08-25T17:02:40;36.00;56.30
31979;DHT22;18502;43.574;1.276;2022-08-25T17:05:07;36.80;54.50
31979;DHT22;18502;43.574;1.276;2022-08-25T17:07:33;36.70;54.00
31979;DHT22;18502;43.574;1.276;2022-08-25T17:09:59;37.20;53.30
31979;DHT22;18502;43.574;1.276;2022-08-25T17:12:26;37.50;53.00
31979;DHT22;18502;43.574;1.276;2022-08-25T17:14:52;36.60;53.20
31979;DHT22;18502;43.574;1.276;2022-08-25T17:17:18;37.30;52.50
31979;DHT22;18502;43.574;1.276;2022-08-25T17:19:44;38.00;51.90
31979;DHT22;18502;43.574;1.276;2022-08-25T17:22:10;37.30;51.60
31979;DHT22;18502;43.574;1.276;2022-08-25T17:24:44;35.80;53.10
31979;DHT22;18502;43.574;1.276;2022-08-25T17:27:10;34.40;55.60
31979;DHT22;18502;43.574;1.276;2022-08-25T17:29:36;34.20;55.70
31979;DHT22;18502;43.574;1.276;2022-08-25T17:32:03;32.70;58.20
31979;DHT22;18502;43.574;1.276;2022-08-25T17:34:29;32.80;58.80
31979;DHT22;18502;43.574;1.276;2022-08-25T17:36:55;32.20;59.20
31979;DHT22;18502;43.574;1.276;2022-08-25T17:39:22;31.70;63.60
31979;DHT22;18502;43.574;1.276;2022-08-25T17:41:48;31.50;62.70
31979;DHT22;18502;43.574;1.276;2022-08-25T17:44:14;32.30;62.90
31979;DHT22;18502;43.574;1.276;2022-08-25T17:46:40;31.80;62.00
31979;DHT22;18502;43.574;1.276;2022-08-25T17:49:07;31.10;64.30
31979;DHT22;18502;43.574;1.276;2022-08-25T17:51:33;30.70;65.20
31979;DHT22;18502;43.574;1.276;2022-08-25T17:53:59;30.60;64.60
31979;DHT22;18502;43.574;1.276;2022-08-25T17:56:25;30.70;64.40
31979;DHT22;18502;43.574;1.276;2022-08-25T17:58:54;30.70;64.10
31979;DHT22;18502;43.574;1.276;2022-08-25T18:03:47;30.50;62.90
31979;DHT22;18502;43.574;1.276;2022-08-25T18:06:14;30.40;62.60
31979;DHT22;18502;43.574;1.276;2022-08-25T18:08:41;30.10;65.20
31979;DHT22;18502;43.574;1.276;2022-08-25T18:11:07;29.90;64.70
31979;DHT22;18502;43.574;1.276;2022-08-25T18:13:33;29.90;64.40